Terminal Aerodrome Forecast
Issued by NWS Charleston, WV

Home | Current Version | Previous Version | Text Only | Print | Product List | Glossary On
Versions: 1 2 3 4 5 6 7 8 9 10 11 12 13 14 15 16 17 18 19 20 21 22 23 24 25 26 27 28 29 30 31 32
000
FTUS41 KRLX 220544
TAFEKN
TAF
KEKN 220544Z 2206/2306 24006KT P6SM BKN050
     FM221100 29007KT P6SM BKN035
     FM221200 30008G14KT 6SM -SN BR BKN015
     FM221500 30008G16KT P6SM BKN015
     FM221700 31007KT P6SM SCT020
     FM230100 32003KT P6SM SCT025=

USA.gov is the U.S. government's official web portal to all federal, state and local government web resources and services.